Main page
METAR-TAF:

METAR-TAF

Airports :

Princess Juliana International Airport

Sint Maarten, Netherlands Antilles

latitude: 18-03N, longitude: 063-07W, elevation: 4 m

Current weather observation

The report was made 38 minutes ago, at 03:00 UTC
Wind 8 kt from the East/Northeast
Temperature 26°C
Humidity 84%
Pressure 1017 hPa
Visibility 10 km or more
Few clouds at a height of 1900 ft

METAR: TNCM 270300Z 07008KT 9999 FEW019 26/23 Q1016 A3003 RERA

Time: 23:38 (03:38 UTC)

Forecast

The report was made 4 hours and 16 minutes ago, at 23:22 UTC
Forecast valid from 27 at 00 UTC to 27 at 24 UTC
Wind 15 kt from the East
Visibility: 10 km
Scattered clouds at a height of 1800 ft
Scattered clouds at a height of 4000 ft
showers in vicinity

TAF: TNCM 262322Z 2700/2724 10015KT P6SM VCSH SCT018 SCT040

Weather observations and forecasts of more than 4000 airports (METAR and TAF reports).

The available stations are represented by yellow and red dots on the map.

Hover mouse over dot to see the name of the station.

Then click to see weather observations and forecasts.

To change the map : click on the green buttons with a black cross to zoom in, on the green button with a dash to zoom out, or on the green arrows for adjacent maps.


METAR-TAF: